sensor_id;sensor_type;location;lat;lon;timestamp;temperature;humidity
25991;DHT22;13779;-33.886;151.198;2023-08-07T00:00:40;15.10;99.90
25991;DHT22;13779;-33.886;151.198;2023-08-07T00:03:10;15.10;99.90
25991;DHT22;13779;-33.886;151.198;2023-08-07T00:05:40;15.20;99.90
25991;DHT22;13779;-33.886;151.198;2023-08-07T00:08:11;15.30;99.90
25991;DHT22;13779;-33.886;151.198;2023-08-07T00:10:41;15.40;99.90
25991;DHT22;13779;-33.886;151.198;2023-08-07T00:13:12;15.50;99.90
25991;DHT22;13779;-33.886;151.198;2023-08-07T00:15:42;15.60;99.90
25991;DHT22;13779;-33.886;151.198;2023-08-07T00:18:12;15.60;99.90
25991;DHT22;13779;-33.886;151.198;2023-08-07T00:20:42;15.60;99.90
25991;DHT22;13779;-33.886;151.198;2023-08-07T00:23:12;15.60;99.90
25991;DHT22;13779;-33.886;151.198;2023-08-07T00:25:42;15.60;99.90
25991;DHT22;13779;-33.886;151.198;2023-08-07T00:28:12;15.60;99.90
25991;DHT22;13779;-33.886;151.198;2023-08-07T00:30:43;15.60;99.90
25991;DHT22;13779;-33.886;151.198;2023-08-07T00:33:13;15.60;99.90
25991;DHT22;13779;-33.886;151.198;2023-08-07T00:35:43;15.70;99.90
25991;DHT22;13779;-33.886;151.198;2023-08-07T00:38:13;15.80;99.90
25991;DHT22;13779;-33.886;151.198;2023-08-07T00:40:44;15.90;99.90
25991;DHT22;13779;-33.886;151.198;2023-08-07T00:43:14;15.90;99.90
25991;DHT22;13779;-33.886;151.198;2023-08-07T00:45:46;16.00;99.90
25991;DHT22;13779;-33.886;151.198;2023-08-07T00:48:17;16.20;99.90
25991;DHT22;13779;-33.886;151.198;2023-08-07T00:50:48;16.20;99.90
25991;DHT22;13779;-33.886;151.198;2023-08-07T00:53:20;16.20;99.90
25991;DHT22;13779;-33.886;151.198;2023-08-07T00:55:51;16.30;99.90
25991;DHT22;13779;-33.886;151.198;2023-08-07T00:58:22;16.30;99.90
25991;DHT22;13779;-33.886;151.198;2023-08-07T01:00:52;16.30;99.90
25991;DHT22;13779;-33.886;151.198;2023-08-07T01:03:24;16.30;99.90
25991;DHT22;13779;-33.886;151.198;2023-08-07T01:05:54;16.30;99.90
25991;DHT22;13779;-33.886;151.198;2023-08-07T01:08:25;16.20;99.90
25991;DHT22;13779;-33.886;151.198;2023-08-07T01:16:32;16.70;99.90
25991;DHT22;13779;-33.886;151.198;2023-08-07T01:19:05;16.70;99.90
25991;DHT22;13779;-33.886;151.198;2023-08-07T01:21:39;16.60;99.90
25991;DHT22;13779;-33.886;151.198;2023-08-07T01:24:11;16.60;99.90
25991;DHT22;13779;-33.886;151.198;2023-08-07T01:26:43;16.70;99.90
25991;DHT22;13779;-33.886;151.198;2023-08-07T01:29:26;16.60;99.90
25991;DHT22;13779;-33.886;151.198;2023-08-07T01:32:00;16.50;99.90
25991;DHT22;13779;-33.886;151.198;2023-08-07T01:34:35;16.40;99.90
25991;DHT22;13779;-33.886;151.198;2023-08-07T01:37:08;16.30;99.90
25991;DHT22;13779;-33.886;151.198;2023-08-07T01:39:42;16.20;99.90
25991;DHT22;13779;-33.886;151.198;2023-08-07T01:42:13;16.10;99.90
25991;DHT22;13779;-33.886;151.198;2023-08-07T01:44:44;16.10;99.90
25991;DHT22;13779;-33.886;151.198;2023-08-07T01:47:14;16.00;99.90
25991;DHT22;13779;-33.886;151.198;2023-08-07T01:49:45;15.90;99.90
25991;DHT22;13779;-33.886;151.198;2023-08-07T01:52:15;15.90;99.90
25991;DHT22;13779;-33.886;151.198;2023-08-07T01:54:46;15.80;99.90
25991;DHT22;13779;-33.886;151.198;2023-08-07T01:57:17;15.90;99.90
25991;DHT22;13779;-33.886;151.198;2023-08-07T01:59:47;15.90;99.90
25991;DHT22;13779;-33.886;151.198;2023-08-07T02:02:18;15.90;99.90
25991;DHT22;13779;-33.886;151.198;2023-08-07T02:04:48;16.10;99.90
25991;DHT22;13779;-33.886;151.198;2023-08-07T02:07:19;16.00;99.90
25991;DHT22;13779;-33.886;151.198;2023-08-07T02:09:49;16.00;99.90
25991;DHT22;13779;-33.886;151.198;2023-08-07T02:12:20;16.00;99.90
25991;DHT22;13779;-33.886;151.198;2023-08-07T02:14:50;16.00;99.90
25991;DHT22;13779;-33.886;151.198;2023-08-07T02:17:25;16.00;99.90
25991;DHT22;13779;-33.886;151.198;2023-08-07T02:19:56;16.00;99.90
25991;DHT22;13779;-33.886;151.198;2023-08-07T02:22:27;16.10;99.90
25991;DHT22;13779;-33.886;151.198;2023-08-07T02:24:58;16.10;99.90
25991;DHT22;13779;-33.886;151.198;2023-08-07T02:27:28;15.90;99.90
25991;DHT22;13779;-33.886;151.198;2023-08-07T02:29:59;15.90;99.90
25991;DHT22;13779;-33.886;151.198;2023-08-07T02:32:32;16.00;99.90
25991;DHT22;13779;-33.886;151.198;2023-08-07T02:35:02;16.00;99.90
25991;DHT22;13779;-33.886;151.198;2023-08-07T02:37:33;15.90;99.90
25991;DHT22;13779;-33.886;151.198;2023-08-07T02:40:04;15.80;99.90
25991;DHT22;13779;-33.886;151.198;2023-08-07T02:42:34;15.90;99.90
25991;DHT22;13779;-33.886;151.198;2023-08-07T02:45:05;15.80;99.90
25991;DHT22;13779;-33.886;151.198;2023-08-07T02:47:35;15.70;99.90
25991;DHT22;13779;-33.886;151.198;2023-08-07T02:50:07;15.80;99.90
25991;DHT22;13779;-33.886;151.198;2023-08-07T02:52:38;15.90;99.90
25991;DHT22;13779;-33.886;151.198;2023-08-07T02:55:09;16.10;99.90
25991;DHT22;13779;-33.886;151.198;2023-08-07T02:57:40;16.30;99.90
25991;DHT22;13779;-33.886;151.198;2023-08-07T03:00:10;16.40;99.90
25991;DHT22;13779;-33.886;151.198;2023-08-07T03:02:41;16.50;99.90
25991;DHT22;13779;-33.886;151.198;2023-08-07T03:05:12;16.40;99.90
25991;DHT22;13779;-33.886;151.198;2023-08-07T03:07:43;16.40;99.90
25991;DHT22;13779;-33.886;151.198;2023-08-07T03:10:13;16.50;99.90
25991;DHT22;13779;-33.886;151.198;2023-08-07T03:12:44;16.40;99.90
25991;DHT22;13779;-33.886;151.198;2023-08-07T03:15:14;16.40;99.90
25991;DHT22;13779;-33.886;151.198;2023-08-07T03:17:45;16.40;99.90
25991;DHT22;13779;-33.886;151.198;2023-08-07T03:20:16;16.30;99.90
25991;DHT22;13779;-33.886;151.198;2023-08-07T03:22:46;16.30;99.90
25991;DHT22;13779;-33.886;151.198;2023-08-07T03:25:18;16.30;99.90
25991;DHT22;13779;-33.886;151.198;2023-08-07T03:27:49;16.30;99.90
25991;DHT22;13779;-33.886;151.198;2023-08-07T03:30:20;16.40;99.90
25991;DHT22;13779;-33.886;151.198;2023-08-07T03:32:51;16.40;99.90
25991;DHT22;13779;-33.886;151.198;2023-08-07T03:35:22;16.40;99.90
25991;DHT22;13779;-33.886;151.198;2023-08-07T03:37:52;16.50;99.90
25991;DHT22;13779;-33.886;151.198;2023-08-07T03:40:23;16.50;99.90
25991;DHT22;13779;-33.886;151.198;2023-08-07T03:42:53;16.60;99.90
25991;DHT22;13779;-33.886;151.198;2023-08-07T03:45:24;16.60;99.90
25991;DHT22;13779;-33.886;151.198;2023-08-07T03:47:54;16.70;99.90
25991;DHT22;13779;-33.886;151.198;2023-08-07T03:50:25;16.70;99.90
25991;DHT22;13779;-33.886;151.198;2023-08-07T03:52:55;16.70;99.90
25991;DHT22;13779;-33.886;151.198;2023-08-07T03:55:25;16.70;99.90
25991;DHT22;13779;-33.886;151.198;2023-08-07T03:57:55;16.80;99.90
25991;DHT22;13779;-33.886;151.198;2023-08-07T04:00:25;16.80;99.90
25991;DHT22;13779;-33.886;151.198;2023-08-07T04:02:56;16.80;99.90
25991;DHT22;13779;-33.886;151.198;2023-08-07T04:05:26;16.80;99.90
25991;DHT22;13779;-33.886;151.198;2023-08-07T04:07:56;16.70;99.90
25991;DHT22;13779;-33.886;151.198;2023-08-07T04:10:26;16.70;99.90
25991;DHT22;13779;-33.886;151.198;2023-08-07T04:12:57;16.70;99.90
25991;DHT22;13779;-33.886;151.198;2023-08-07T04:15:27;16.70;99.90
25991;DHT22;13779;-33.886;151.198;2023-08-07T04:17:57;16.60;99.90
25991;DHT22;13779;-33.886;151.198;2023-08-07T04:20:27;16.70;99.90
25991;DHT22;13779;-33.886;151.198;2023-08-07T04:22:58;16.70;99.90
25991;DHT22;13779;-33.886;151.198;2023-08-07T04:25:29;16.70;99.90
25991;DHT22;13779;-33.886;151.198;2023-08-07T04:27:59;16.60;99.90
25991;DHT22;13779;-33.886;151.198;2023-08-07T04:30:29;16.50;99.90
25991;DHT22;13779;-33.886;151.198;2023-08-07T04:32:59;16.50;99.90
25991;DHT22;13779;-33.886;151.198;2023-08-07T04:35:29;16.50;99.90
25991;DHT22;13779;-33.886;151.198;2023-08-07T04:38:00;16.40;99.90
25991;DHT22;13779;-33.886;151.198;2023-08-07T04:40:31;16.40;99.90
25991;DHT22;13779;-33.886;151.198;2023-08-07T04:43:01;16.40;99.90
25991;DHT22;13779;-33.886;151.198;2023-08-07T04:45:32;16.30;99.90
25991;DHT22;13779;-33.886;151.198;2023-08-07T04:48:04;16.20;99.90
25991;DHT22;13779;-33.886;151.198;2023-08-07T04:50:35;16.10;99.90
25991;DHT22;13779;-33.886;151.198;2023-08-07T04:53:06;16.00;99.90
25991;DHT22;13779;-33.886;151.198;2023-08-07T04:55:36;15.90;99.90
25991;DHT22;13779;-33.886;151.198;2023-08-07T04:58:07;15.90;99.90
25991;DHT22;13779;-33.886;151.198;2023-08-07T05:00:38;15.90;99.90
25991;DHT22;13779;-33.886;151.198;2023-08-07T05:03:08;15.90;99.90
25991;DHT22;13779;-33.886;151.198;2023-08-07T05:05:39;15.80;99.90
25991;DHT22;13779;-33.886;151.198;2023-08-07T05:08:10;15.80;99.90
25991;DHT22;13779;-33.886;151.198;2023-08-07T05:10:40;15.70;99.90
25991;DHT22;13779;-33.886;151.198;2023-08-07T05:13:11;15.60;99.90
25991;DHT22;13779;-33.886;151.198;2023-08-07T05:15:42;15.50;99.90
25991;DHT22;13779;-33.886;151.198;2023-08-07T05:18:12;15.40;99.90
25991;DHT22;13779;-33.886;151.198;2023-08-07T05:20:43;15.40;99.90
25991;DHT22;13779;-33.886;151.198;2023-08-07T05:23:13;15.50;99.90
25991;DHT22;13779;-33.886;151.198;2023-08-07T05:25:47;15.50;99.90
25991;DHT22;13779;-33.886;151.198;2023-08-07T05:28:18;15.50;99.90
25991;DHT22;13779;-33.886;151.198;2023-08-07T05:30:48;15.60;99.90
25991;DHT22;13779;-33.886;151.198;2023-08-07T05:33:19;15.60;99.90
25991;DHT22;13779;-33.886;151.198;2023-08-07T05:35:50;15.60;99.90
25991;DHT22;13779;-33.886;151.198;2023-08-07T05:38:22;15.60;99.90
25991;DHT22;13779;-33.886;151.198;2023-08-07T05:40:53;15.50;99.90
25991;DHT22;13779;-33.886;151.198;2023-08-07T05:43:24;15.50;99.90
25991;DHT22;13779;-33.886;151.198;2023-08-07T05:45:54;15.60;99.90
25991;DHT22;13779;-33.886;151.198;2023-08-07T05:48:25;15.60;99.90
25991;DHT22;13779;-33.886;151.198;2023-08-07T05:50:55;15.60;99.90
25991;DHT22;13779;-33.886;151.198;2023-08-07T05:53:26;15.60;99.90
25991;DHT22;13779;-33.886;151.198;2023-08-07T05:55:56;15.60;99.90
25991;DHT22;13779;-33.886;151.198;2023-08-07T05:58:26;15.50;99.90
25991;DHT22;13779;-33.886;151.198;2023-08-07T06:00:57;15.50;99.90
25991;DHT22;13779;-33.886;151.198;2023-08-07T06:03:27;15.50;99.90
25991;DHT22;13779;-33.886;151.198;2023-08-07T06:05:58;15.50;99.90
25991;DHT22;13779;-33.886;151.198;2023-08-07T06:08:28;15.40;99.90
25991;DHT22;13779;-33.886;151.198;2023-08-07T06:10:58;15.40;99.90
25991;DHT22;13779;-33.886;151.198;2023-08-07T06:13:32;15.40;99.90
25991;DHT22;13779;-33.886;151.198;2023-08-07T06:16:03;15.30;99.90
25991;DHT22;13779;-33.886;151.198;2023-08-07T06:18:33;15.30;99.90
25991;DHT22;13779;-33.886;151.198;2023-08-07T06:21:04;15.30;99.90
25991;DHT22;13779;-33.886;151.198;2023-08-07T06:23:36;15.30;99.90
25991;DHT22;13779;-33.886;151.198;2023-08-07T06:26:06;15.30;99.90
25991;DHT22;13779;-33.886;151.198;2023-08-07T06:28:38;15.30;99.90
25991;DHT22;13779;-33.886;151.198;2023-08-07T06:31:09;15.30;99.90
25991;DHT22;13779;-33.886;151.198;2023-08-07T06:33:39;15.30;99.90
25991;DHT22;13779;-33.886;151.198;2023-08-07T06:36:09;15.30;99.90
25991;DHT22;13779;-33.886;151.198;2023-08-07T06:38:39;15.30;99.90
25991;DHT22;13779;-33.886;151.198;2023-08-07T06:41:09;15.30;99.90
25991;DHT22;13779;-33.886;151.198;2023-08-07T06:43:39;15.30;99.90
25991;DHT22;13779;-33.886;151.198;2023-08-07T06:46:09;15.40;99.90
25991;DHT22;13779;-33.886;151.198;2023-08-07T06:48:40;15.40;99.90
25991;DHT22;13779;-33.886;151.198;2023-08-07T06:51:11;15.30;99.90
25991;DHT22;13779;-33.886;151.198;2023-08-07T06:53:44;15.30;99.90
25991;DHT22;13779;-33.886;151.198;2023-08-07T06:56:14;15.30;99.90
25991;DHT22;13779;-33.886;151.198;2023-08-07T06:58:45;15.30;99.90
25991;DHT22;13779;-33.886;151.198;2023-08-07T07:01:15;15.30;99.90
25991;DHT22;13779;-33.886;151.198;2023-08-07T07:03:45;15.30;99.90
25991;DHT22;13779;-33.886;151.198;2023-08-07T07:06:21;15.30;99.90
25991;DHT22;13779;-33.886;151.198;2023-08-07T07:08:54;15.20;99.90
25991;DHT22;13779;-33.886;151.198;2023-08-07T07:11:25;15.20;99.90
25991;DHT22;13779;-33.886;151.198;2023-08-07T07:13:55;15.20;99.90
25991;DHT22;13779;-33.886;151.198;2023-08-07T07:16:25;15.20;99.90
25991;DHT22;13779;-33.886;151.198;2023-08-07T07:18:57;15.20;99.90
25991;DHT22;13779;-33.886;151.198;2023-08-07T07:21:29;15.10;99.90
25991;DHT22;13779;-33.886;151.198;2023-08-07T07:23:59;15.10;99.90
25991;DHT22;13779;-33.886;151.198;2023-08-07T07:26:29;15.10;99.90
25991;DHT22;13779;-33.886;151.198;2023-08-07T07:29:00;15.00;99.90
25991;DHT22;13779;-33.886;151.198;2023-08-07T07:31:30;15.00;99.90
25991;DHT22;13779;-33.886;151.198;2023-08-07T07:34:00;15.00;99.90
25991;DHT22;13779;-33.886;151.198;2023-08-07T07:36:30;14.90;99.90
25991;DHT22;13779;-33.886;151.198;2023-08-07T07:39:01;14.90;99.90
25991;DHT22;13779;-33.886;151.198;2023-08-07T07:41:31;14.90;99.90
25991;DHT22;13779;-33.886;151.198;2023-08-07T07:44:01;14.80;99.90
25991;DHT22;13779;-33.886;151.198;2023-08-07T07:46:31;14.90;99.90
25991;DHT22;13779;-33.886;151.198;2023-08-07T07:49:02;14.80;99.90
25991;DHT22;13779;-33.886;151.198;2023-08-07T07:51:34;14.80;99.90
25991;DHT22;13779;-33.886;151.198;2023-08-07T07:54:09;14.80;99.90
25991;DHT22;13779;-33.886;151.198;2023-08-07T07:56:43;14.70;99.90
25991;DHT22;13779;-33.886;151.198;2023-08-07T07:59:13;14.80;99.90
25991;DHT22;13779;-33.886;151.198;2023-08-07T08:01:43;14.80;99.90
25991;DHT22;13779;-33.886;151.198;2023-08-07T08:04:13;14.70;99.90
25991;DHT22;13779;-33.886;151.198;2023-08-07T08:06:43;14.70;99.90
25991;DHT22;13779;-33.886;151.198;2023-08-07T08:09:13;14.60;99.90
25991;DHT22;13779;-33.886;151.198;2023-08-07T08:11:44;14.60;99.90
25991;DHT22;13779;-33.886;151.198;2023-08-07T08:14:15;14.60;99.90
25991;DHT22;13779;-33.886;151.198;2023-08-07T08:16:45;14.60;99.90
25991;DHT22;13779;-33.886;151.198;2023-08-07T08:19:15;14.70;99.90
25991;DHT22;13779;-33.886;151.198;2023-08-07T08:21:46;14.60;99.90
25991;DHT22;13779;-33.886;151.198;2023-08-07T08:24:16;14.60;99.90
25991;DHT22;13779;-33.886;151.198;2023-08-07T08:26:46;14.60;99.90
25991;DHT22;13779;-33.886;151.198;2023-08-07T08:29:16;14.60;99.90
25991;DHT22;13779;-33.886;151.198;2023-08-07T08:31:46;14.60;99.90
25991;DHT22;13779;-33.886;151.198;2023-08-07T08:34:16;14.60;99.90
25991;DHT22;13779;-33.886;151.198;2023-08-07T08:36:46;14.60;99.90
25991;DHT22;13779;-33.886;151.198;2023-08-07T08:39:17;14.60;99.90
25991;DHT22;13779;-33.886;151.198;2023-08-07T08:41:47;14.60;99.90
25991;DHT22;13779;-33.886;151.198;2023-08-07T08:44:22;14.60;99.90
25991;DHT22;13779;-33.886;151.198;2023-08-07T08:46:55;14.70;99.90
25991;DHT22;13779;-33.886;151.198;2023-08-07T08:49:37;14.70;99.90
25991;DHT22;13779;-33.886;151.198;2023-08-07T08:52:13;14.70;99.90
25991;DHT22;13779;-33.886;151.198;2023-08-07T08:54:45;14.60;99.90
25991;DHT22;13779;-33.886;151.198;2023-08-07T08:57:15;14.60;99.90
25991;DHT22;13779;-33.886;151.198;2023-08-07T08:59:47;14.60;99.90
25991;DHT22;13779;-33.886;151.198;2023-08-07T09:02:18;14.60;99.90
25991;DHT22;13779;-33.886;151.198;2023-08-07T09:04:49;14.60;99.90
25991;DHT22;13779;-33.886;151.198;2023-08-07T09:07:20;14.60;99.90
25991;DHT22;13779;-33.886;151.198;2023-08-07T09:09:53;14.60;99.90
25991;DHT22;13779;-33.886;151.198;2023-08-07T09:12:27;14.60;99.90
25991;DHT22;13779;-33.886;151.198;2023-08-07T09:15:00;14.60;99.90
25991;DHT22;13779;-33.886;151.198;2023-08-07T09:17:35;14.60;99.90
25991;DHT22;13779;-33.886;151.198;2023-08-07T09:20:10;14.60;99.90
25991;DHT22;13779;-33.886;151.198;2023-08-07T09:22:43;14.60;99.90
25991;DHT22;13779;-33.886;151.198;2023-08-07T09:25:14;14.60;99.90
25991;DHT22;13779;-33.886;151.198;2023-08-07T09:27:44;14.60;99.90
25991;DHT22;13779;-33.886;151.198;2023-08-07T09:30:15;14.60;99.90
25991;DHT22;13779;-33.886;151.198;2023-08-07T09:32:48;14.60;99.90
25991;DHT22;13779;-33.886;151.198;2023-08-07T09:35:21;14.70;99.90
25991;DHT22;13779;-33.886;151.198;2023-08-07T09:37:52;14.60;99.90
25991;DHT22;13779;-33.886;151.198;2023-08-07T09:40:32;14.60;99.90
25991;DHT22;13779;-33.886;151.198;2023-08-07T09:43:03;14.60;99.90
25991;DHT22;13779;-33.886;151.198;2023-08-07T09:45:34;14.60;99.90
25991;DHT22;13779;-33.886;151.198;2023-08-07T09:48:07;14.60;99.90
25991;DHT22;13779;-33.886;151.198;2023-08-07T09:50:37;14.60;99.90
25991;DHT22;13779;-33.886;151.198;2023-08-07T09:53:16;14.60;99.90
25991;DHT22;13779;-33.886;151.198;2023-08-07T09:55:46;14.60;99.90
25991;DHT22;13779;-33.886;151.198;2023-08-07T09:58:20;14.60;99.90
25991;DHT22;13779;-33.886;151.198;2023-08-07T10:00:51;14.60;99.90
25991;DHT22;13779;-33.886;151.198;2023-08-07T10:03:29;14.60;99.90
25991;DHT22;13779;-33.886;151.198;2023-08-07T10:05:59;14.60;99.90
25991;DHT22;13779;-33.886;151.198;2023-08-07T10:08:30;14.60;99.90
25991;DHT22;13779;-33.886;151.198;2023-08-07T10:11:00;14.60;99.90
25991;DHT22;13779;-33.886;151.198;2023-08-07T10:13:32;14.60;99.90
25991;DHT22;13779;-33.886;151.198;2023-08-07T10:16:06;14.60;99.90
25991;DHT22;13779;-33.886;151.198;2023-08-07T10:18:37;14.60;99.90
25991;DHT22;13779;-33.886;151.198;2023-08-07T10:21:07;14.60;99.90
25991;DHT22;13779;-33.886;151.198;2023-08-07T10:23:39;14.60;99.90
25991;DHT22;13779;-33.886;151.198;2023-08-07T10:26:10;14.60;99.90
25991;DHT22;13779;-33.886;151.198;2023-08-07T10:28:41;14.70;99.90
25991;DHT22;13779;-33.886;151.198;2023-08-07T10:31:12;14.70;99.90
25991;DHT22;13779;-33.886;151.198;2023-08-07T10:33:43;14.70;99.90
25991;DHT22;13779;-33.886;151.198;2023-08-07T10:36:18;14.70;99.90
25991;DHT22;13779;-33.886;151.198;2023-08-07T10:39:07;14.70;99.90
25991;DHT22;13779;-33.886;151.198;2023-08-07T10:41:47;14.60;99.90
25991;DHT22;13779;-33.886;151.198;2023-08-07T10:46:56;14.60;99.90
25991;DHT22;13779;-33.886;151.198;2023-08-07T10:49:45;14.60;99.90
25991;DHT22;13779;-33.886;151.198;2023-08-07T10:52:16;14.60;99.90
25991;DHT22;13779;-33.886;151.198;2023-08-07T10:54:59;14.60;99.90
25991;DHT22;13779;-33.886;151.198;2023-08-07T10:57:35;14.60;99.90
25991;DHT22;13779;-33.886;151.198;2023-08-07T11:00:12;14.60;99.90
25991;DHT22;13779;-33.886;151.198;2023-08-07T11:02:43;14.60;99.90
25991;DHT22;13779;-33.886;151.198;2023-08-07T11:05:20;14.60;99.90
25991;DHT22;13779;-33.886;151.198;2023-08-07T11:07:50;14.60;99.90
25991;DHT22;13779;-33.886;151.198;2023-08-07T11:10:21;14.60;99.90
25991;DHT22;13779;-33.886;151.198;2023-08-07T11:12:51;14.60;99.90
25991;DHT22;13779;-33.886;151.198;2023-08-07T11:15:22;14.60;99.90
25991;DHT22;13779;-33.886;151.198;2023-08-07T11:17:53;14.60;99.90
25991;DHT22;13779;-33.886;151.198;2023-08-07T11:20:23;14.60;99.90
25991;DHT22;13779;-33.886;151.198;2023-08-07T11:22:59;14.60;99.90
25991;DHT22;13779;-33.886;151.198;2023-08-07T11:25:30;14.60;99.90
25991;DHT22;13779;-33.886;151.198;2023-08-07T11:28:01;14.60;99.90
25991;DHT22;13779;-33.886;151.198;2023-08-07T11:30:34;14.60;99.90
25991;DHT22;13779;-33.886;151.198;2023-08-07T11:33:08;14.50;99.90
25991;DHT22;13779;-33.886;151.198;2023-08-07T11:35:47;14.50;99.90
25991;DHT22;13779;-33.886;151.198;2023-08-07T11:38:43;14.50;99.90
25991;DHT22;13779;-33.886;151.198;2023-08-07T11:41:16;14.50;99.90
25991;DHT22;13779;-33.886;151.198;2023-08-07T11:43:51;14.50;99.90
25991;DHT22;13779;-33.886;151.198;2023-08-07T11:46:21;14.50;99.90
25991;DHT22;13779;-33.886;151.198;2023-08-07T11:48:52;14.50;99.90
25991;DHT22;13779;-33.886;151.198;2023-08-07T11:51:27;14.50;99.90
25991;DHT22;13779;-33.886;151.198;2023-08-07T11:54:13;14.40;99.90
25991;DHT22;13779;-33.886;151.198;2023-08-07T11:56:45;14.40;99.90
25991;DHT22;13779;-33.886;151.198;2023-08-07T11:59:17;14.40;99.90
25991;DHT22;13779;-33.886;151.198;2023-08-07T12:01:48;14.40;99.90
25991;DHT22;13779;-33.886;151.198;2023-08-07T12:04:18;14.40;99.90
25991;DHT22;13779;-33.886;151.198;2023-08-07T12:06:56;14.40;99.90
25991;DHT22;13779;-33.886;151.198;2023-08-07T12:09:27;14.40;99.90
25991;DHT22;13779;-33.886;151.198;2023-08-07T12:11:58;14.30;99.90
25991;DHT22;13779;-33.886;151.198;2023-08-07T12:14:31;14.30;99.90
25991;DHT22;13779;-33.886;151.198;2023-08-07T12:17:02;14.30;99.90
25991;DHT22;13779;-33.886;151.198;2023-08-07T12:19:42;14.30;99.90
25991;DHT22;13779;-33.886;151.198;2023-08-07T12:22:19;14.30;99.90
25991;DHT22;13779;-33.886;151.198;2023-08-07T12:24:50;14.30;99.90
25991;DHT22;13779;-33.886;151.198;2023-08-07T12:27:21;14.20;99.90
25991;DHT22;13779;-33.886;151.198;2023-08-07T12:29:51;14.20;99.90
25991;DHT22;13779;-33.886;151.198;2023-08-07T12:32:21;14.20;99.90
25991;DHT22;13779;-33.886;151.198;2023-08-07T12:34:51;14.20;99.90
25991;DHT22;13779;-33.886;151.198;2023-08-07T12:37:25;14.20;99.90
25991;DHT22;13779;-33.886;151.198;2023-08-07T12:39:55;14.30;99.90
25991;DHT22;13779;-33.886;151.198;2023-08-07T12:42:46;14.20;99.90
25991;DHT22;13779;-33.886;151.198;2023-08-07T12:45:17;14.20;99.90
25991;DHT22;13779;-33.886;151.198;2023-08-07T12:48:08;14.20;99.90
25991;DHT22;13779;-33.886;151.198;2023-08-07T12:50:39;14.20;99.90
25991;DHT22;13779;-33.886;151.198;2023-08-07T12:53:10;14.10;99.90
25991;DHT22;13779;-33.886;151.198;2023-08-07T12:55:40;14.10;99.90
25991;DHT22;13779;-33.886;151.198;2023-08-07T12:58:10;14.20;99.90
25991;DHT22;13779;-33.886;151.198;2023-08-07T13:00:41;14.10;99.90
25991;DHT22;13779;-33.886;151.198;2023-08-07T13:03:11;14.20;99.90
25991;DHT22;13779;-33.886;151.198;2023-08-07T13:05:41;14.20;99.90
25991;DHT22;13779;-33.886;151.198;2023-08-07T13:08:11;14.10;99.90
25991;DHT22;13779;-33.886;151.198;2023-08-07T13:10:41;14.10;99.90
25991;DHT22;13779;-33.886;151.198;2023-08-07T13:13:12;14.10;99.90
25991;DHT22;13779;-33.886;151.198;2023-08-07T13:15:42;14.10;99.90
25991;DHT22;13779;-33.886;151.198;2023-08-07T13:18:12;14.10;99.90
25991;DHT22;13779;-33.886;151.198;2023-08-07T13:20:46;14.10;99.90
25991;DHT22;13779;-33.886;151.198;2023-08-07T13:23:16;14.10;99.90
25991;DHT22;13779;-33.886;151.198;2023-08-07T13:25:47;14.10;99.90
25991;DHT22;13779;-33.886;151.198;2023-08-07T13:28:17;14.10;99.90
25991;DHT22;13779;-33.886;151.198;2023-08-07T13:30:47;14.00;99.90
25991;DHT22;13779;-33.886;151.198;2023-08-07T13:33:17;14.00;99.90
25991;DHT22;13779;-33.886;151.198;2023-08-07T13:35:49;14.10;99.90
25991;DHT22;13779;-33.886;151.198;2023-08-07T13:38:19;14.00;99.90
25991;DHT22;13779;-33.886;151.198;2023-08-07T13:40:49;14.00;99.90
25991;DHT22;13779;-33.886;151.198;2023-08-07T13:43:21;14.00;99.90
25991;DHT22;13779;-33.886;151.198;2023-08-07T13:45:51;14.00;99.90
25991;DHT22;13779;-33.886;151.198;2023-08-07T13:48:22;14.00;99.90
25991;DHT22;13779;-33.886;151.198;2023-08-07T13:50:58;13.90;99.90
25991;DHT22;13779;-33.886;151.198;2023-08-07T13:53:30;13.90;99.90
25991;DHT22;13779;-33.886;151.198;2023-08-07T13:56:02;13.90;99.90
25991;DHT22;13779;-33.886;151.198;2023-08-07T13:58:32;13.90;99.90
25991;DHT22;13779;-33.886;151.198;2023-08-07T14:01:03;13.90;99.90
25991;DHT22;13779;-33.886;151.198;2023-08-07T14:03:34;13.90;99.90
25991;DHT22;13779;-33.886;151.198;2023-08-07T14:06:07;13.90;99.90
25991;DHT22;13779;-33.886;151.198;2023-08-07T14:08:38;13.80;99.90
25991;DHT22;13779;-33.886;151.198;2023-08-07T14:11:08;13.80;99.90
25991;DHT22;13779;-33.886;151.198;2023-08-07T14:13:39;13.70;99.90
25991;DHT22;13779;-33.886;151.198;2023-08-07T14:16:10;13.70;99.90
25991;DHT22;13779;-33.886;151.198;2023-08-07T14:18:41;13.70;99.90
25991;DHT22;13779;-33.886;151.198;2023-08-07T14:21:11;13.80;99.90
25991;DHT22;13779;-33.886;151.198;2023-08-07T14:23:42;13.80;99.90
25991;DHT22;13779;-33.886;151.198;2023-08-07T14:26:15;13.80;99.90
25991;DHT22;13779;-33.886;151.198;2023-08-07T14:28:47;13.70;99.90
25991;DHT22;13779;-33.886;151.198;2023-08-07T14:31:18;13.70;99.90
25991;DHT22;13779;-33.886;151.198;2023-08-07T14:33:48;13.60;99.90
25991;DHT22;13779;-33.886;151.198;2023-08-07T14:36:20;13.60;99.90
25991;DHT22;13779;-33.886;151.198;2023-08-07T14:38:51;13.60;99.90
25991;DHT22;13779;-33.886;151.198;2023-08-07T14:41:21;13.60;99.90
25991;DHT22;13779;-33.886;151.198;2023-08-07T14:43:52;13.50;99.90
25991;DHT22;13779;-33.886;151.198;2023-08-07T14:46:23;13.50;99.90
25991;DHT22;13779;-33.886;151.198;2023-08-07T14:48:53;13.50;99.90
25991;DHT22;13779;-33.886;151.198;2023-08-07T14:51:24;13.50;99.90
25991;DHT22;13779;-33.886;151.198;2023-08-07T14:53:54;13.50;99.90
25991;DHT22;13779;-33.886;151.198;2023-08-07T14:56:25;13.50;99.90
25991;DHT22;13779;-33.886;151.198;2023-08-07T14:58:56;13.50;99.90
25991;DHT22;13779;-33.886;151.198;2023-08-07T15:01:26;13.50;99.90
25991;DHT22;13779;-33.886;151.198;2023-08-07T15:03:57;13.50;99.90
25991;DHT22;13779;-33.886;151.198;2023-08-07T15:06:28;13.50;99.90
25991;DHT22;13779;-33.886;151.198;2023-08-07T15:09:00;13.50;99.90
25991;DHT22;13779;-33.886;151.198;2023-08-07T15:11:31;13.40;99.90
25991;DHT22;13779;-33.886;151.198;2023-08-07T15:14:02;13.30;99.90
25991;DHT22;13779;-33.886;151.198;2023-08-07T15:16:34;13.40;99.90
25991;DHT22;13779;-33.886;151.198;2023-08-07T15:19:07;13.40;99.90
25991;DHT22;13779;-33.886;151.198;2023-08-07T15:21:37;13.50;99.90